Algiers Airport, Algeria

12:07 PM CET on July 25, 2016 (GMT +0100)
Houari Boumediene | | Change Station

Elev 82 ft 36.69 °N, 3.22 °E | Updated 7 minutes ago

Clear
Clear
86 °F
Feels Like 85 °F
N
18
Wind Variable Wind from NE

Today
High -- | Low -- °F
--% Chance of Precip.
Yesterday
High -- | Low -- °F
Precip. -- in
Pressure 30.09 in
Visibility -9999.0 miles
Clouds
Heat Index 85 °F
Dew Point 59 °F
Humidity 40%
Rainfall 0.00 in
Snow Depth Not available.
5:47 AM 7:59 PM
Waning Gibbous, 67% visible
METAR DAAG 251100Z 04016KT CAVOK 30/15 Q1019
Pressure 30.09 in
Visibility -9999.0 miles
Clouds
Heat Index 85 °F
Dew Point 59 °F
Humidity 40%
Rainfall 0.00 in
Snow Depth Not available.
5:47 AM 7:59 PM
Waning Gibbous, 67% visible
METAR DAAG 251100Z 04016KT CAVOK 30/15 Q1019

10-Day Weather Forecast

No radar image for this location.
×

Almanac

Astronomy

Jul. 25, 2016 Rise Set
Actual Time
Civil Twilight
Nautical Twilight
Astronomical Twilight
Moon
Length of Visible Light
Length of Day
Tomorrow will be .
, % of the Moon is Illuminated

Today's Extremes

Country Highs Country Lows

Community

WunderPhotos

Upload Photos

1,927,291 photos uploaded!

WunderBlog® & News

Nearby

Air Quality

  Air Quality AQ Index Pollutant
Not available.

Snow Depth

Station Depth Elevation

Earthquake Activity

City Distance Mag. Time & Date
Minimum magnitude displayed is 2.5.

Coastal Water Temperatures

Place Temperature

Stations

Nearby Weather Stations

Station Location Temp. Windchill Dew Point Humidity Wind Precip. Elev Updated Type